sensor_id;sensor_type;location;lat;lon;timestamp;pressure;altitude;pressure_sealevel;temperature;humidity
51530;BME280;37613;51.788;21.582;2023-08-08T00:02:12;99266.47;;;14.84;86.60
51530;BME280;37613;51.788;21.582;2023-08-08T00:06:14;99274.56;;;14.80;87.06
51530;BME280;37613;51.788;21.582;2023-08-08T00:10:19;99278.50;;;14.76;87.89
51530;BME280;37613;51.788;21.582;2023-08-08T00:14:21;99281.92;;;14.74;87.79
51530;BME280;37613;51.788;21.582;2023-08-08T00:18:23;99288.63;;;14.75;86.77
51530;BME280;37613;51.788;21.582;2023-08-08T00:22:26;99288.72;;;14.77;87.00
51530;BME280;37613;51.788;21.582;2023-08-08T00:26:28;99290.92;;;14.79;88.71
51530;BME280;37613;51.788;21.582;2023-08-08T00:30:33;99291.02;;;14.78;87.25
51530;BME280;37613;51.788;21.582;2023-08-08T00:34:35;99292.76;;;14.73;88.72
51530;BME280;37613;51.788;21.582;2023-08-08T00:38:38;99295.81;;;14.67;89.35
51530;BME280;37613;51.788;21.582;2023-08-08T00:42:40;99297.40;;;14.61;88.75
51530;BME280;37613;51.788;21.582;2023-08-08T00:46:42;99302.90;;;14.56;88.59
51530;BME280;37613;51.788;21.582;2023-08-08T00:50:48;99308.59;;;14.52;87.60
51530;BME280;37613;51.788;21.582;2023-08-08T00:54:52;99311.73;;;14.48;89.15
51530;BME280;37613;51.788;21.582;2023-08-08T00:58:58;99320.07;;;14.44;88.88
51530;BME280;37613;51.788;21.582;2023-08-08T01:03:03;99326.14;;;14.43;88.14
51530;BME280;37613;51.788;21.582;2023-08-08T01:07:19;99323.06;;;14.40;88.46
51530;BME280;37613;51.788;21.582;2023-08-08T01:11:29;99327.86;;;14.36;89.40
51530;BME280;37613;51.788;21.582;2023-08-08T01:15:35;99342.89;;;14.34;89.98
51530;BME280;37613;51.788;21.582;2023-08-08T01:19:41;99346.84;;;14.32;90.70
51530;BME280;37613;51.788;21.582;2023-08-08T01:24:02;99349.61;;;14.32;91.27
51530;BME280;37613;51.788;21.582;2023-08-08T01:28:10;99351.13;;;14.35;90.82
51530;BME280;37613;51.788;21.582;2023-08-08T01:32:12;99352.79;;;14.37;90.61
51530;BME280;37613;51.788;21.582;2023-08-08T01:36:27;99357.27;;;14.39;90.11
51530;BME280;37613;51.788;21.582;2023-08-08T01:40:35;99367.23;;;14.38;90.24
51530;BME280;37613;51.788;21.582;2023-08-08T01:44:42;99371.14;;;14.36;90.07
51530;BME280;37613;51.788;21.582;2023-08-08T01:48:47;99374.83;;;14.31;90.07
51530;BME280;37613;51.788;21.582;2023-08-08T01:52:49;99379.98;;;14.29;89.86
51530;BME280;37613;51.788;21.582;2023-08-08T01:56:51;99383.82;;;14.28;90.44
51530;BME280;37613;51.788;21.582;2023-08-08T02:00:53;99383.25;;;14.32;90.40
51530;BME280;37613;51.788;21.582;2023-08-08T02:04:55;99389.36;;;14.35;90.30
51530;BME280;37613;51.788;21.582;2023-08-08T02:08:58;99391.33;;;14.38;89.83
51530;BME280;37613;51.788;21.582;2023-08-08T02:13:00;99394.14;;;14.40;89.70
51530;BME280;37613;51.788;21.582;2023-08-08T02:17:02;99388.42;;;14.34;89.37
51530;BME280;37613;51.788;21.582;2023-08-08T02:21:08;99398.99;;;14.37;89.21
51530;BME280;37613;51.788;21.582;2023-08-08T02:25:10;99404.84;;;14.32;89.41
51530;BME280;37613;51.788;21.582;2023-08-08T02:29:15;99410.13;;;14.28;89.50
51530;BME280;37613;51.788;21.582;2023-08-08T02:33:20;99414.71;;;14.23;89.37
51530;BME280;37613;51.788;21.582;2023-08-08T02:37:25;99423.30;;;14.17;89.26
51530;BME280;37613;51.788;21.582;2023-08-08T02:41:27;99430.14;;;14.11;89.10
51530;BME280;37613;51.788;21.582;2023-08-08T02:45:30;99428.15;;;14.05;89.10
51530;BME280;37613;51.788;21.582;2023-08-08T02:49:32;99439.86;;;14.04;89.21
51530;BME280;37613;51.788;21.582;2023-08-08T02:53:35;99442.98;;;14.04;89.11
51530;BME280;37613;51.788;21.582;2023-08-08T02:57:37;99447.27;;;14.03;88.70
51530;BME280;37613;51.788;21.582;2023-08-08T03:01:39;99454.95;;;14.01;88.32
51530;BME280;37613;51.788;21.582;2023-08-08T03:05:41;99461.09;;;13.98;88.25
51530;BME280;37613;51.788;21.582;2023-08-08T03:09:43;99465.27;;;13.92;88.30
51530;BME280;37613;51.788;21.582;2023-08-08T03:13:45;99468.34;;;13.90;88.28
51530;BME280;37613;51.788;21.582;2023-08-08T03:17:47;99480.25;;;13.87;87.99
51530;BME280;37613;51.788;21.582;2023-08-08T03:21:50;99485.56;;;13.84;87.85
51530;BME280;37613;51.788;21.582;2023-08-08T03:25:52;99490.67;;;13.80;87.86
51530;BME280;37613;51.788;21.582;2023-08-08T03:29:57;99497.87;;;13.75;87.64
51530;BME280;37613;51.788;21.582;2023-08-08T03:34:03;99508.83;;;13.72;87.65
51530;BME280;37613;51.788;21.582;2023-08-08T03:38:06;99517.30;;;13.69;87.54
51530;BME280;37613;51.788;21.582;2023-08-08T03:42:13;99521.59;;;13.69;87.35
51530;BME280;37613;51.788;21.582;2023-08-08T03:46:22;99525.09;;;13.73;87.21
51530;BME280;37613;51.788;21.582;2023-08-08T04:07:17;99549.95;;;13.98;86.28
51530;BME280;37613;51.788;21.582;2023-08-08T04:27:29;99579.80;;;18.68;81.50
51530;BME280;37613;51.788;21.582;2023-08-08T04:43:06;99593.08;;;20.58;71.40
51530;BME280;37613;51.788;21.582;2023-08-08T05:40:37;99637.48;;;19.59;58.06
51530;BME280;37613;51.788;21.582;2023-08-08T05:49:57;99646.05;;;18.29;59.80
51530;BME280;37613;51.788;21.582;2023-08-08T05:54:53;99650.79;;;17.42;61.52
51530;BME280;37613;51.788;21.582;2023-08-08T06:05:02;99667.14;;;16.74;64.68
51530;BME280;37613;51.788;21.582;2023-08-08T07:42:42;99701.16;;;18.14;61.32
51530;BME280;37613;51.788;21.582;2023-08-08T08:15:16;99711.24;;;19.70;54.07
51530;BME280;37613;51.788;21.582;2023-08-08T08:34:33;99707.16;;;19.09;54.81
51530;BME280;37613;51.788;21.582;2023-08-08T08:57:35;99707.48;;;20.11;52.77
51530;BME280;37613;51.788;21.582;2023-08-08T09:02:45;99712.38;;;19.94;52.40
51530;BME280;37613;51.788;21.582;2023-08-08T09:16:51;99713.52;;;19.34;51.71
51530;BME280;37613;51.788;21.582;2023-08-08T09:21:40;99710.24;;;19.38;52.46
51530;BME280;37613;51.788;21.582;2023-08-08T10:14:15;99735.64;;;19.58;45.72
51530;BME280;37613;51.788;21.582;2023-08-08T10:18:26;99738.14;;;19.61;47.85
51530;BME280;37613;51.788;21.582;2023-08-08T10:31:26;99731.95;;;20.04;47.32
51530;BME280;37613;51.788;21.582;2023-08-08T10:40:09;99739.52;;;19.59;45.89
51530;BME280;37613;51.788;21.582;2023-08-08T11:43:02;99749.99;;;20.72;43.57
51530;BME280;37613;51.788;21.582;2023-08-08T11:56:58;99758.66;;;20.46;43.25
51530;BME280;37613;51.788;21.582;2023-08-08T12:05:48;99765.73;;;20.15;44.07
51530;BME280;37613;51.788;21.582;2023-08-08T12:10:18;99775.80;;;20.01;44.29
51530;BME280;37613;51.788;21.582;2023-08-08T12:19:08;99784.13;;;19.75;45.07
51530;BME280;37613;51.788;21.582;2023-08-08T12:28:24;99766.17;;;20.44;44.20
51530;BME280;37613;51.788;21.582;2023-08-08T12:32:51;99772.02;;;20.84;44.12
51530;BME280;37613;51.788;21.582;2023-08-08T12:37:02;99764.45;;;20.81;43.59
51530;BME280;37613;51.788;21.582;2023-08-08T12:45:52;99761.09;;;20.59;44.22
51530;BME280;37613;51.788;21.582;2023-08-08T12:50:43;99763.19;;;20.62;43.56
51530;BME280;37613;51.788;21.582;2023-08-08T13:13:42;99761.75;;;21.17;41.25
51530;BME280;37613;51.788;21.582;2023-08-08T13:39:50;99770.23;;;20.66;42.95
51530;BME280;37613;51.788;21.582;2023-08-08T13:44:30;99763.36;;;20.85;42.87
51530;BME280;37613;51.788;21.582;2023-08-08T13:53:26;99778.20;;;20.67;41.70
51530;BME280;37613;51.788;21.582;2023-08-08T13:58:07;99779.49;;;20.50;41.61
51530;BME280;37613;51.788;21.582;2023-08-08T14:03:10;99782.09;;;20.36;42.15
51530;BME280;37613;51.788;21.582;2023-08-08T14:16:41;99781.28;;;20.85;42.84
51530;BME280;37613;51.788;21.582;2023-08-08T14:21:30;99779.56;;;20.97;42.15
51530;BME280;37613;51.788;21.582;2023-08-08T14:26:04;99779.92;;;21.01;42.50
51530;BME280;37613;51.788;21.582;2023-08-08T14:34:34;99785.06;;;21.21;43.02
51530;BME280;37613;51.788;21.582;2023-08-08T14:43:26;99789.06;;;21.06;42.68
51530;BME280;37613;51.788;21.582;2023-08-08T15:01:39;99797.08;;;20.56;44.27
51530;BME280;37613;51.788;21.582;2023-08-08T15:05:41;99790.46;;;20.79;44.71
51530;BME280;37613;51.788;21.582;2023-08-08T15:09:47;99788.20;;;20.99;44.85
51530;BME280;37613;51.788;21.582;2023-08-08T15:13:53;99785.17;;;21.10;44.90
51530;BME280;37613;51.788;21.582;2023-08-08T15:17:55;99784.02;;;21.06;44.71
51530;BME280;37613;51.788;21.582;2023-08-08T15:22:04;99782.59;;;20.87;44.59
51530;BME280;37613;51.788;21.582;2023-08-08T15:26:07;99788.09;;;20.65;44.66
51530;BME280;37613;51.788;21.582;2023-08-08T15:30:29;99787.92;;;20.51;44.73
51530;BME280;37613;51.788;21.582;2023-08-08T15:34:34;99788.33;;;20.47;44.91
51530;BME280;37613;51.788;21.582;2023-08-08T15:38:58;99789.72;;;20.42;44.87
51530;BME280;37613;51.788;21.582;2023-08-08T15:43:09;99790.75;;;20.39;45.05
51530;BME280;37613;51.788;21.582;2023-08-08T15:47:11;99786.56;;;20.32;45.22
51530;BME280;37613;51.788;21.582;2023-08-08T15:51:59;99786.70;;;20.24;45.28
51530;BME280;37613;51.788;21.582;2023-08-08T15:56:28;99786.39;;;20.12;45.36
51530;BME280;37613;51.788;21.582;2023-08-08T16:00:35;99794.98;;;20.04;45.55
51530;BME280;37613;51.788;21.582;2023-08-08T16:05:01;99796.73;;;19.96;45.92
51530;BME280;37613;51.788;21.582;2023-08-08T16:09:05;99795.62;;;19.89;46.10
51530;BME280;37613;51.788;21.582;2023-08-08T16:13:28;99798.96;;;19.80;46.17
51530;BME280;37613;51.788;21.582;2023-08-08T16:17:51;99803.23;;;19.68;46.32
51530;BME280;37613;51.788;21.582;2023-08-08T16:22:34;99800.31;;;19.64;46.61
51530;BME280;37613;51.788;21.582;2023-08-08T16:26:40;99803.98;;;19.68;46.68
51530;BME280;37613;51.788;21.582;2023-08-08T16:31:28;99804.11;;;19.67;46.47
51530;BME280;37613;51.788;21.582;2023-08-08T16:35:40;99801.03;;;19.56;46.32
51530;BME280;37613;51.788;21.582;2023-08-08T16:40:02;99805.06;;;19.44;46.28
51530;BME280;37613;51.788;21.582;2023-08-08T16:44:05;99808.14;;;19.30;46.45
51530;BME280;37613;51.788;21.582;2023-08-08T16:48:14;99812.88;;;19.16;46.55
51530;BME280;37613;51.788;21.582;2023-08-08T17:01:32;99811.02;;;18.81;47.18
51530;BME280;37613;51.788;21.582;2023-08-08T17:05:36;99814.68;;;18.76;47.38
51530;BME280;37613;51.788;21.582;2023-08-08T17:09:39;99815.23;;;18.65;47.60
51530;BME280;37613;51.788;21.582;2023-08-08T17:13:49;99817.54;;;18.55;47.69
51530;BME280;37613;51.788;21.582;2023-08-08T17:26:20;99822.39;;;18.43;48.11
51530;BME280;37613;51.788;21.582;2023-08-08T17:30:27;99824.69;;;18.40;48.28
51530;BME280;37613;51.788;21.582;2023-08-08T17:34:51;99828.16;;;18.37;48.51
51530;BME280;37613;51.788;21.582;2023-08-08T17:39:10;99824.90;;;18.34;48.95
51530;BME280;37613;51.788;21.582;2023-08-08T17:43:17;99826.54;;;18.25;49.03
51530;BME280;37613;51.788;21.582;2023-08-08T17:47:43;99827.29;;;18.13;49.40
51530;BME280;37613;51.788;21.582;2023-08-08T17:51:46;99829.29;;;18.00;49.76
51530;BME280;37613;51.788;21.582;2023-08-08T17:55:48;99836.86;;;17.88;50.02
51530;BME280;37613;51.788;21.582;2023-08-08T17:59:51;99840.11;;;17.72;50.38
51530;BME280;37613;51.788;21.582;2023-08-08T18:03:55;99844.21;;;17.57;50.58
51530;BME280;37613;51.788;21.582;2023-08-08T18:08:02;99851.77;;;17.39;50.87
51530;BME280;37613;51.788;21.582;2023-08-08T18:12:10;99848.66;;;17.22;51.23
51530;BME280;37613;51.788;21.582;2023-08-08T18:16:14;99847.84;;;17.08;51.58
51530;BME280;37613;51.788;21.582;2023-08-08T18:20:19;99852.25;;;16.92;51.99
51530;BME280;37613;51.788;21.582;2023-08-08T18:24:24;99856.73;;;16.80;52.28
51530;BME280;37613;51.788;21.582;2023-08-08T18:28:27;99860.50;;;16.68;52.70
51530;BME280;37613;51.788;21.582;2023-08-08T18:32:35;99864.63;;;16.55;52.99
51530;BME280;37613;51.788;21.582;2023-08-08T18:37:11;99866.39;;;16.41;53.59
51530;BME280;37613;51.788;21.582;2023-08-08T18:50:41;99873.94;;;16.03;54.41
51530;BME280;37613;51.788;21.582;2023-08-08T18:54:51;99881.17;;;15.88;54.87
51530;BME280;37613;51.788;21.582;2023-08-08T18:58:55;99877.89;;;15.77;55.11
51530;BME280;37613;51.788;21.582;2023-08-08T19:03:28;99874.33;;;15.65;55.41
51530;BME280;37613;51.788;21.582;2023-08-08T19:08:16;99877.17;;;15.51;55.86
51530;BME280;37613;51.788;21.582;2023-08-08T19:12:50;99881.60;;;15.40;56.15
51530;BME280;37613;51.788;21.582;2023-08-08T19:17:17;99882.54;;;15.28;56.44
51530;BME280;37613;51.788;21.582;2023-08-08T20:07:29;99877.34;;;14.07;60.62
51530;BME280;37613;51.788;21.582;2023-08-08T20:11:32;99877.05;;;14.03;60.99
51530;BME280;37613;51.788;21.582;2023-08-08T20:15:43;99879.24;;;14.00;61.22
51530;BME280;37613;51.788;21.582;2023-08-08T20:19:45;99882.75;;;13.99;61.58
51530;BME280;37613;51.788;21.582;2023-08-08T20:23:48;99884.23;;;13.97;61.92
51530;BME280;37613;51.788;21.582;2023-08-08T20:27:50;99881.37;;;13.93;62.21
51530;BME280;37613;51.788;21.582;2023-08-08T20:31:53;99878.14;;;13.87;62.26
51530;BME280;37613;51.788;21.582;2023-08-08T20:35:55;99873.86;;;13.82;62.67
51530;BME280;37613;51.788;21.582;2023-08-08T20:39:58;99873.85;;;13.79;62.85
51530;BME280;37613;51.788;21.582;2023-08-08T20:44:00;99876.82;;;13.77;63.13
51530;BME280;37613;51.788;21.582;2023-08-08T20:48:05;99878.77;;;13.70;63.45
51530;BME280;37613;51.788;21.582;2023-08-08T20:52:07;99880.73;;;13.63;63.58
51530;BME280;37613;51.788;21.582;2023-08-08T20:56:10;99880.02;;;13.58;63.84
51530;BME280;37613;51.788;21.582;2023-08-08T21:00:12;99872.02;;;13.57;64.33
51530;BME280;37613;51.788;21.582;2023-08-08T21:04:14;99875.02;;;13.57;64.61
51530;BME280;37613;51.788;21.582;2023-08-08T21:08:16;99873.44;;;13.61;65.09
51530;BME280;37613;51.788;21.582;2023-08-08T21:12:18;99875.39;;;13.68;65.38
51530;BME280;37613;51.788;21.582;2023-08-08T21:16:20;99871.64;;;13.74;65.65
51530;BME280;37613;51.788;21.582;2023-08-08T21:20:23;99867.84;;;13.81;65.76
51530;BME280;37613;51.788;21.582;2023-08-08T21:24:25;99869.36;;;13.89;66.46
51530;BME280;37613;51.788;21.582;2023-08-08T21:28:26;99869.19;;;13.94;66.56
51530;BME280;37613;51.788;21.582;2023-08-08T21:32:30;99867.36;;;13.98;66.73
51530;BME280;37613;51.788;21.582;2023-08-08T21:36:32;99867.97;;;13.99;66.79
51530;BME280;37613;51.788;21.582;2023-08-08T21:40:34;99865.92;;;13.99;66.80
51530;BME280;37613;51.788;21.582;2023-08-08T21:44:37;99867.60;;;13.98;67.19
51530;BME280;37613;51.788;21.582;2023-08-08T21:48:38;99865.60;;;13.95;67.28
51530;BME280;37613;51.788;21.582;2023-08-08T21:52:40;99863.01;;;13.93;67.51
51530;BME280;37613;51.788;21.582;2023-08-08T21:56:43;99864.02;;;13.90;67.59
51530;BME280;37613;51.788;21.582;2023-08-08T22:00:46;99858.05;;;13.87;67.57
51530;BME280;37613;51.788;21.582;2023-08-08T22:04:49;99856.84;;;13.83;67.82
51530;BME280;37613;51.788;21.582;2023-08-08T22:08:52;99855.17;;;13.79;68.14
51530;BME280;37613;51.788;21.582;2023-08-08T22:12:54;99857.10;;;13.79;68.31
51530;BME280;37613;51.788;21.582;2023-08-08T22:16:58;99853.51;;;13.79;68.51
51530;BME280;37613;51.788;21.582;2023-08-08T22:21:00;99852.17;;;13.82;68.52
51530;BME280;37613;51.788;21.582;2023-08-08T22:25:02;99846.55;;;13.86;68.67
51530;BME280;37613;51.788;21.582;2023-08-08T22:29:05;99844.30;;;13.90;68.86
51530;BME280;37613;51.788;21.582;2023-08-08T22:33:07;99844.69;;;13.96;68.91
51530;BME280;37613;51.788;21.582;2023-08-08T22:37:09;99839.92;;;14.00;69.02
51530;BME280;37613;51.788;21.582;2023-08-08T22:41:11;99833.31;;;14.05;69.14
51530;BME280;37613;51.788;21.582;2023-08-08T22:45:13;99831.73;;;14.12;69.31
51530;BME280;37613;51.788;21.582;2023-08-08T22:49:15;99832.10;;;14.21;69.31
51530;BME280;37613;51.788;21.582;2023-08-08T22:53:17;99822.35;;;14.28;69.41
51530;BME280;37613;51.788;21.582;2023-08-08T22:57:19;99817.64;;;14.32;69.60
51530;BME280;37613;51.788;21.582;2023-08-08T23:01:21;99825.13;;;14.35;69.78
51530;BME280;37613;51.788;21.582;2023-08-08T23:05:23;99824.54;;;14.37;69.88
51530;BME280;37613;51.788;21.582;2023-08-08T23:09:26;99832.54;;;14.38;69.98
51530;BME280;37613;51.788;21.582;2023-08-08T23:13:28;99847.72;;;14.35;70.05
51530;BME280;37613;51.788;21.582;2023-08-08T23:17:30;99862.44;;;14.26;70.29
51530;BME280;37613;51.788;21.582;2023-08-08T23:21:32;99867.72;;;14.20;70.98
51530;BME280;37613;51.788;21.582;2023-08-08T23:25:34;99866.50;;;14.18;70.94
51530;BME280;37613;51.788;21.582;2023-08-08T23:29:37;99866.77;;;14.20;71.45
51530;BME280;37613;51.788;21.582;2023-08-08T23:33:39;99866.21;;;14.24;71.20
51530;BME280;37613;51.788;21.582;2023-08-08T23:37:41;99865.81;;;14.28;71.48
51530;BME280;37613;51.788;21.582;2023-08-08T23:41:43;99863.91;;;14.31;71.60
51530;BME280;37613;51.788;21.582;2023-08-08T23:45:45;99868.12;;;14.31;71.60
51530;BME280;37613;51.788;21.582;2023-08-08T23:49:48;99867.29;;;14.30;71.67
51530;BME280;37613;51.788;21.582;2023-08-08T23:53:50;99867.12;;;14.22;71.63
51530;BME280;37613;51.788;21.582;2023-08-08T23:57:52;99867.94;;;14.13;72.08
